Thedford, NE

8:03 PM CST on November 21, 2019 (GMT -0600)
Thedford

Weather History for KTIF - October, 2019

Change the Weather History Date:

Monday, October 21, 2019

  Actual Average (WUND) Record (WUND)
Temperature  
Mean Temperature 42 °F -  
Max Temperature 50 °F - - (-1)
Min Temperature 35 °F - - (-1)
Degree Days  
Heating Degree Days 22    
Moisture  
Dew Point 31 °F    
Average Humidity 72    
Maximum Humidity 97    
Minimum Humidity 38    
Precipitation  
Precipitation 0.01 in - - ()
Sea Level Pressure  
Sea Level Pressure 29.73 in    
Wind  
Wind Speed 25 mph ()    
Max Wind Speed 41 mph    
Max Gust Speed 55 mph    
Visibility 9.6 miles    
Events Rain , Snow    
Averages and records for this station are not official NWS values.
T = Trace of Precipitation, MM = Missing Value Source: Averaged Metar Reports

Daily Weather History Graph

Daily Weather History Graph

Search for Another Location

Airport or City:

Astronomy

Oct. 21, 2019 Rise Set
Actual Time 8:01 AM CDT 6:51 PM CDT
Civil Twilight 7:33 AM CDT 7:20 PM CDT
Nautical Twilight 7:00 AM CDT 7:52 PM CDT
Astronomical Twilight 6:28 AM CDT 8:24 PM CDT
Moon 12:00 AM CDT (10/21) 3:24 PM CDT (10/21)
Length of Visible Light 11h 47m
Length of Day
10h 50m
Waning Gibbous, 48% of the Moon is Illuminated
Oct 21
Waning Gibbous
Oct 27
New
Nov 4
First Quarter
Nov 12
Full
Nov 19
Last Quarter

Hourly Weather History & Observations

Time (CDT) Temp. Windchill Dew Point Humidity Pressure Visibility Wind Dir Wind Speed Gust Speed Precip Events Conditions
12:15 AM 38.3 °F 27.3 °F 33.4 °F 83% 29.57 in 10.0 mi NW 24.2 mph 36.8 mph N/A   Overcast
12:35 AM 37.9 °F 26.8 °F 32.9 °F 82% 29.57 in 10.0 mi WNW 24.2 mph 38.0 mph N/A   Overcast
12:55 AM 37.8 °F 27.1 °F 33.3 °F 84% 29.57 in 10.0 mi WNW 21.9 mph 33.4 mph N/A   Overcast
1:15 AM 37.0 °F 25.9 °F 34.2 °F 89% 29.56 in 10.0 mi WNW 23.0 mph 33.4 mph N/A   Drizzle
1:35 AM 36.0 °F 24.2 °F 34.5 °F 94% 29.56 in 7.0 mi WNW 24.2 mph 34.5 mph N/A Rain Light Rain
1:55 AM 35.2 °F 23.2 °F 34.0 °F 95% 29.57 in 5.0 mi WNW 24.2 mph 32.2 mph N/A   Overcast
2:15 AM 35.1 °F 24.1 °F 34.2 °F 97% 29.57 in 5.0 mi WNW 19.6 mph 31.1 mph N/A Snow Light Snow
2:35 AM 35.6 °F 24.5 °F 34.9 °F 97% 29.57 in 7.0 mi WNW 20.7 mph 34.5 mph N/A Rain Rain
2:55 AM 36.5 °F 24.7 °F 35.8 °F 97% 29.56 in 7.0 mi WNW 25.3 mph 35.7 mph 0.01 in Rain Light Rain
3:15 AM 37.4 °F 25.6 °F 36.5 °F 97% 29.56 in 7.0 mi WNW 26.5 mph 39.1 mph N/A Rain Light Rain
3:35 AM 37.8 °F 25.7 °F 36.5 °F 95% 29.55 in 7.0 mi WNW 28.8 mph 42.6 mph N/A Rain Rain
3:55 AM 38.3 °F 25.8 °F 36.7 °F 94% 29.55 in 10.0 mi NW 32.2 mph 41.4 mph N/A   Drizzle
4:15 AM 38.7 °F 27.1 °F 36.5 °F 92% 29.55 in 10.0 mi NW 27.6 mph 39.1 mph N/A   Drizzle
4:35 AM 39.0 °F 27.4 °F 36.1 °F 89% 29.56 in 10.0 mi NW 28.8 mph 47.2 mph N/A   Light Drizzle
4:55 AM 38.8 °F 27.1 °F 36.0 °F 89% 29.57 in 10.0 mi NW 28.8 mph 48.3 mph N/A   Overcast
5:15 AM 39.0 °F 27.4 °F 35.8 °F 88% 29.57 in 10.0 mi NW 28.8 mph 46.0 mph N/A   Light Drizzle
5:35 AM 39.4 °F 27.6 °F 35.8 °F 87% 29.57 in 10.0 mi NW 29.9 mph 42.6 mph N/A   Overcast
5:55 AM 39.6 °F 27.5 °F 35.6 °F 86% 29.57 in 10.0 mi NW 32.2 mph 44.9 mph N/A   Overcast
6:15 AM 40.1 °F 28.2 °F 35.8 °F 85% 29.57 in 10.0 mi NW 32.2 mph 42.6 mph N/A   Overcast
6:35 AM 40.3 °F 28.5 °F 35.6 °F 83% 29.57 in 10.0 mi NW 32.2 mph 42.6 mph N/A   Overcast
6:55 AM 40.3 °F 27.6 °F 35.1 °F 82% 29.58 in 10.0 mi NW 38.0 mph 47.2 mph N/A   Overcast
7:15 AM 39.9 °F 27.3 °F 34.9 °F 82% 29.58 in 10.0 mi NW 36.8 mph 48.3 mph N/A   Overcast
7:35 AM 39.2 °F 26.1 °F 35.2 °F 86% 29.59 in 10.0 mi NW 38.0 mph 49.5 mph N/A   Drizzle
7:55 AM 38.5 °F 25.0 °F 35.6 °F 89% 29.60 in 10.0 mi NW 39.1 mph 47.2 mph N/A   Drizzle
8:15 AM 38.3 °F 26.2 °F 35.6 °F 90% 29.61 in 10.0 mi NW 29.9 mph 39.1 mph N/A   Drizzle
8:35 AM 38.3 °F 24.9 °F 35.2 °F 89% 29.61 in 10.0 mi NNW 38.0 mph 50.6 mph N/A   Overcast
8:55 AM 38.3 °F 25.2 °F 35.2 °F 89% 29.63 in 10.0 mi NNW 35.7 mph 42.6 mph N/A   Light Drizzle
9:15 AM 38.5 °F 25.8 °F 35.4 °F 89% 29.63 in 10.0 mi NNW 33.4 mph 44.9 mph N/A   Drizzle
9:35 AM 39.2 °F 27.0 °F 35.2 °F 86% 29.64 in 10.0 mi NW 32.2 mph 44.9 mph N/A   Overcast
9:55 AM 39.7 °F 27.2 °F 35.2 °F 84% 29.64 in 10.0 mi NW 35.7 mph 44.9 mph N/A   Overcast
12:15 PM 42.1 °F 30.4 °F 34.5 °F 75% 29.71 in 10.0 mi NNW 35.7 mph 46.0 mph N/A   Unknown
12:35 PM 42.1 °F 31.1 °F 34.3 °F 74% 29.73 in 10.0 mi NNW 31.1 mph 46.0 mph N/A   Overcast
12:55 PM 42.6 °F 31.0 °F 34.7 °F 74% 29.73 in 10.0 mi NW 36.8 mph 47.2 mph N/A   Overcast
1:15 PM 42.8 °F 31.3 °F 34.7 °F 73% 29.74 in 10.0 mi NW 36.8 mph 55.2 mph N/A   Light Drizzle
1:35 PM 42.8 °F 31.1 °F 34.7 °F 73% 29.75 in 10.0 mi NNW 38.0 mph 46.0 mph N/A Rain Rain
1:55 PM 42.4 °F 31.1 °F 34.9 °F 75% 29.76 in 10.0 mi NNW 34.5 mph 46.0 mph N/A   Light Drizzle
2:15 PM 43.3 °F 32.0 °F 33.4 °F 68% 29.76 in 10.0 mi NNW 36.8 mph 48.3 mph N/A   Light Drizzle
2:35 PM 45.3 °F 34.2 °F 32.5 °F 61% 29.77 in 10.0 mi NW 41.4 mph 47.2 mph N/A   Overcast
3:15 PM 47.1 °F - 27.1 °F 46% 29.78 in 10.0 mi NNW 39.1 mph 51.8 mph N/A   Mostly Cloudy
3:35 PM 46.9 °F - 25.5 °F 43% 29.79 in 10.0 mi NNW 33.4 mph 51.8 mph N/A   Scattered Clouds
3:55 PM 47.3 °F - 24.6 °F 41% 29.80 in 10.0 mi NNW 36.8 mph 49.5 mph N/A   Clear
4:15 PM 48.0 °F - 25.2 °F 41% 29.81 in 10.0 mi NNW 38.0 mph 51.8 mph N/A   Scattered Clouds
4:35 PM 47.5 °F - 25.5 °F 42% 29.82 in 10.0 mi NNW 33.4 mph 48.3 mph N/A   Scattered Clouds
4:55 PM 48.2 °F - 24.6 °F 40% 29.83 in 10.0 mi NNW 28.8 mph 40.3 mph N/A   Scattered Clouds
5:15 PM 50.0 °F - 25.2 °F 38% 29.84 in 10.0 mi NNW 29.9 mph 46.0 mph N/A   Scattered Clouds
5:35 PM 49.3 °F - 24.3 °F 38% 29.85 in 10.0 mi NNW 31.1 mph 47.2 mph N/A   Scattered Clouds
5:55 PM 48.4 °F - 24.6 °F 39% 29.86 in 10.0 mi NW 29.9 mph 43.7 mph N/A   Clear
6:15 PM 47.7 °F - 24.8 °F 41% 29.87 in 10.0 mi NNW 26.5 mph 36.8 mph N/A   Clear
6:35 PM 46.4 °F 38.5 °F 25.7 °F 44% 29.89 in 10.0 mi NNW 21.9 mph 26.5 mph N/A   Clear
6:55 PM 45.1 °F 37.3 °F 25.7 °F 47% 29.89 in 10.0 mi NW 19.6 mph 27.6 mph N/A   Clear
7:15 PM 44.6 °F 37.2 °F 25.7 °F 48% 29.90 in 10.0 mi NW 17.3 mph 25.3 mph N/A   Clear
7:35 PM 43.7 °F 36.6 °F 26.4 °F 51% 29.91 in 10.0 mi NW 15.0 mph 23.0 mph N/A   Clear
7:55 PM 42.4 °F 36.1 °F 26.6 °F 54% 29.92 in 10.0 mi NW 11.5 mph - N/A   Clear
8:15 PM 41.4 °F 34.7 °F 26.4 °F 55% 29.93 in 10.0 mi NW 11.5 mph - N/A   Scattered Clouds
8:35 PM 40.6 °F 34.3 °F 26.6 °F 57% 29.93 in 10.0 mi WNW 10.4 mph - N/A   Clear
8:55 PM 39.7 °F 33.2 °F 27.0 °F 60% 29.94 in 10.0 mi WNW 10.4 mph - N/A   Clear
9:15 PM 39.6 °F 33.0 °F 27.3 °F 62% 29.94 in 10.0 mi WNW 10.4 mph - N/A   Clear
9:35 PM 39.4 °F 32.3 °F 27.3 °F 62% 29.95 in 10.0 mi WNW 11.5 mph - N/A   Clear
9:55 PM 38.3 °F 31.9 °F 27.3 °F 65% 29.95 in 10.0 mi WNW 9.2 mph - N/A   Clear
10:15 PM 37.4 °F 30.8 °F 27.5 °F 67% 29.95 in 10.0 mi WNW 9.2 mph - N/A   Clear
10:35 PM 37.4 °F 30.8 °F 27.5 °F 67% 29.96 in 10.0 mi WNW 9.2 mph - N/A   Clear
10:55 PM 36.0 °F 29.0 °F 27.5 °F 71% 29.96 in 10.0 mi WNW 9.2 mph - N/A   Clear
11:15 PM 35.1 °F 27.9 °F 27.3 °F 73% 29.96 in 10.0 mi WNW 9.2 mph - N/A   Clear
11:35 PM 35.8 °F 27.8 °F 27.5 °F 72% 29.96 in 10.0 mi West 11.5 mph - N/A   Clear
11:55 PM 35.6 °F 28.0 °F 27.3 °F 72% 29.97 in 10.0 mi WNW 10.4 mph - N/A   Clear